createdAt,value
2023-03-26T00:00:34.274Z,98851.41
2023-03-26T00:03:58.836Z,98850.00
2023-03-26T00:07:20.874Z,98861.78
2023-03-26T00:10:44.561Z,98843.03
2023-03-26T00:14:06.691Z,98844.91
2023-03-26T00:17:28.526Z,98846.56
2023-03-26T00:20:52.192Z,98858.75
2023-03-26T00:24:16.388Z,98851.97
2023-03-26T00:27:38.312Z,98851.91
2023-03-26T00:31:04.176Z,98846.78
2023-03-26T00:34:26.923Z,98828.41
2023-03-26T00:37:51.638Z,98832.31
2023-03-26T00:41:22.938Z,98836.69
2023-03-26T00:44:44.895Z,98836.88
2023-03-26T00:48:06.972Z,98843.91
2023-03-26T00:51:30.185Z,98846.50
2023-03-26T00:54:53.852Z,98847.44
2023-03-26T00:58:17.138Z,98853.47
2023-03-26T01:01:40.031Z,98849.91
2023-03-26T01:05:04.209Z,98849.84
2023-03-26T01:08:31.150Z,98840.75
2023-03-26T01:11:54.926Z,98834.34
2023-03-26T01:15:16.786Z,98836.88
2023-03-26T01:18:41.339Z,98848.91
2023-03-26T01:22:05.263Z,98849.03
2023-03-26T01:25:34.564Z,98838.22
2023-03-26T01:29:01.792Z,98845.78
2023-03-26T01:32:41.271Z,98835.28
2023-03-26T01:36:09.539Z,98832.84
2023-03-26T01:39:39.041Z,98832.38
2023-03-26T01:43:10.611Z,98844.91
2023-03-26T01:46:36.494Z,98849.09
2023-03-26T01:49:58.545Z,98838.16
2023-03-26T01:53:21.088Z,98825.00
2023-03-26T01:56:50.793Z,98835.19
2023-03-26T02:00:23.467Z,98836.22
2023-03-26T02:03:51.394Z,98847.50
2023-03-26T02:07:21.244Z,98842.41
2023-03-26T02:10:45.884Z,98841.59
2023-03-26T02:14:09.712Z,98841.00
2023-03-26T02:17:33.280Z,98840.06
2023-03-26T02:20:55.859Z,98845.09
2023-03-26T02:24:18.740Z,98845.00
2023-03-26T02:27:45.507Z,98775.19
2023-03-26T02:31:09.827Z,98838.16
2023-03-26T02:34:33.655Z,98837.28
2023-03-26T02:37:55.635Z,98835.75
2023-03-26T02:41:18.013Z,98839.34
2023-03-26T02:44:40.959Z,98832.75
2023-03-26T02:48:03.184Z,98839.53
2023-03-26T02:51:27.622Z,98831.97
2023-03-26T02:54:49.419Z,98832.09
2023-03-26T02:58:12.381Z,98833.75
2023-03-26T03:01:35.364Z,98832.91
2023-03-26T03:05:01.977Z,98834.50
2023-03-26T03:08:28.485Z,98835.34
2023-03-26T03:11:50.841Z,98833.69
2023-03-26T03:15:14.153Z,98789.28
2023-03-26T03:18:36.772Z,98827.06
2023-03-26T03:21:58.560Z,98821.31
2023-03-26T03:25:22.414Z,98827.31
2023-03-26T03:28:45.438Z,98818.94
2023-03-26T03:32:07.332Z,98826.84
2023-03-26T03:35:29.788Z,98830.28
2023-03-26T03:38:52.237Z,98832.97
2023-03-26T03:42:37.914Z,98828.59
2023-03-26T03:46:02.093Z,98828.50
2023-03-26T03:49:24.290Z,98832.03
2023-03-26T03:52:46.619Z,98833.69
2023-03-26T03:56:10.363Z,98830.38
2023-03-26T03:59:32.352Z,98827.09
2023-03-26T04:02:56.503Z,98829.50
2023-03-26T04:06:19.770Z,98814.56
2023-03-26T04:09:46.213Z,98833.88
2023-03-26T04:13:08.227Z,98831.28
2023-03-26T04:16:30.436Z,98821.72
2023-03-26T04:19:55.208Z,98822.59
2023-03-26T04:23:18.697Z,98821.56
2023-03-26T04:26:41.271Z,98807.44
2023-03-26T04:30:04.088Z,98802.25
2023-03-26T04:33:25.950Z,98820.00
2023-03-26T04:36:49.129Z,98820.00
2023-03-26T04:40:15.595Z,98818.47
2023-03-26T04:43:42.443Z,98821.91
2023-03-26T04:47:04.352Z,98818.41
2023-03-26T04:50:27.517Z,98825.25
2023-03-26T04:53:54.471Z,98807.25
2023-03-26T04:57:22.522Z,98805.44
2023-03-26T05:00:44.694Z,98811.34
2023-03-26T05:04:06.736Z,98814.88
2023-03-26T05:07:28.661Z,98805.59
2023-03-26T05:10:51.934Z,98818.22
2023-03-26T05:14:14.040Z,98808.03
2023-03-26T05:17:41.637Z,98816.53
2023-03-26T05:21:04.260Z,98814.88
2023-03-26T05:24:27.304Z,98818.22
2023-03-26T05:27:50.827Z,98812.09
2023-03-26T05:31:12.910Z,98812.03
2023-03-26T05:34:34.969Z,98821.47
2023-03-26T05:37:57.183Z,98818.69
2023-03-26T05:41:20.186Z,98816.28
2023-03-26T05:44:43.843Z,98822.41
2023-03-26T05:48:06.287Z,98819.81
2023-03-26T05:51:28.333Z,98814.88
2023-03-26T05:54:50.684Z,98821.66
2023-03-26T05:58:13.077Z,98808.44
2023-03-26T06:01:36.715Z,98812.81
2023-03-26T06:04:59.047Z,98823.84
2023-03-26T06:08:21.076Z,98823.00
2023-03-26T06:11:42.991Z,98825.59
2023-03-26T06:15:05.277Z,98825.72
2023-03-26T06:18:28.749Z,98818.00
2023-03-26T06:21:50.763Z,98818.09
2023-03-26T06:25:12.509Z,98816.34
2023-03-26T06:28:35.469Z,98812.91
2023-03-26T06:32:01.542Z,98812.91
2023-03-26T06:35:33.004Z,98818.94
2023-03-26T06:38:54.782Z,98818.00
2023-03-26T06:42:16.479Z,98810.31
2023-03-26T06:45:38.634Z,98823.78
2023-03-26T06:49:00.553Z,98824.59
2023-03-26T06:52:23.992Z,98820.06
2023-03-26T06:55:46.401Z,98827.50
2023-03-26T06:59:08.479Z,98827.25
2023-03-26T07:02:30.242Z,98828.72
2023-03-26T07:05:52.135Z,98824.38
2023-03-26T07:09:15.883Z,98825.59
2023-03-26T07:12:38.118Z,98825.25
2023-03-26T07:15:59.933Z,98822.94
2023-03-26T07:19:22.293Z,98826.44
2023-03-26T07:22:44.642Z,98823.75
2023-03-26T07:26:20.445Z,98824.22
2023-03-26T07:29:50.415Z,98823.94
2023-03-26T07:33:18.360Z,98816.50
2023-03-26T07:36:47.365Z,98833.41
2023-03-26T07:40:21.338Z,98828.19
2023-03-26T07:43:59.494Z,98814.47
2023-03-26T07:47:26.812Z,98829.34
2023-03-26T07:50:49.328Z,98838.03
2023-03-26T07:54:12.400Z,98825.97
2023-03-26T07:57:44.591Z,98820.41
2023-03-26T08:01:13.835Z,98828.66
2023-03-26T08:04:47.782Z,98820.78
2023-03-26T08:08:18.370Z,98837.09
2023-03-26T08:11:49.128Z,98795.72
2023-03-26T08:15:16.986Z,98839.13
2023-03-26T08:18:52.086Z,98839.97
2023-03-26T08:22:20.907Z,98834.78
2023-03-26T08:25:52.567Z,98838.22
2023-03-26T08:29:21.677Z,98842.66
2023-03-26T08:32:43.998Z,98836.63
2023-03-26T08:36:08.195Z,98831.25
2023-03-26T08:39:30.677Z,98838.22
2023-03-26T08:43:32.530Z,98833.09
2023-03-26T08:47:21.647Z,98835.88
2023-03-26T08:51:01.740Z,98839.44
2023-03-26T08:54:48.422Z,98832.38
2023-03-26T08:58:45.337Z,98817.81
2023-03-26T09:02:42.288Z,98837.47
2023-03-26T09:06:31.366Z,98833.84
2023-03-26T09:10:34.864Z,98835.41
2023-03-26T09:14:23.811Z,98823.63
2023-03-26T09:18:31.034Z,98830.41
2023-03-26T09:22:18.646Z,98830.50
2023-03-26T09:26:01.131Z,98834.84
2023-03-26T09:30:11.886Z,98837.53
2023-03-26T09:33:56.114Z,98831.63
2023-03-26T09:37:26.773Z,98837.91
2023-03-26T09:40:57.305Z,98836.50
2023-03-26T09:45:17.388Z,98836.94
2023-03-26T09:49:15.760Z,98835.84
2023-03-26T09:53:01.801Z,98834.78
2023-03-26T09:56:34.419Z,98830.13
2023-03-26T10:00:10.090Z,98834.13
2023-03-26T10:03:43.301Z,98841.72
2023-03-26T10:07:18.144Z,98824.19
2023-03-26T10:10:50.601Z,98835.78
2023-03-26T10:14:21.793Z,98832.06
2023-03-26T10:17:56.195Z,98819.13
2023-03-26T10:21:28.467Z,98832.63
2023-03-26T10:25:16.772Z,98829.25
2023-03-26T10:28:49.537Z,98830.84
2023-03-26T10:32:23.554Z,98824.41
2023-03-26T10:35:53.888Z,98818.25
2023-03-26T10:39:36.850Z,98814.69
2023-03-26T10:43:29.926Z,98826.47
2023-03-26T10:50:55.104Z,98829.69
2023-03-26T10:54:27.681Z,98823.44
2023-03-26T10:57:54.310Z,98798.63
2023-03-26T11:01:25.604Z,98833.31
2023-03-26T11:04:56.214Z,98826.34
2023-03-26T11:08:30.999Z,98826.03
2023-03-26T11:11:59.904Z,98820.09
2023-03-26T11:15:28.372Z,98824.53
2023-03-26T11:18:59.377Z,98827.22
2023-03-26T11:22:32.515Z,98820.13
2023-03-26T11:26:09.823Z,98826.91
2023-03-26T11:29:47.612Z,98820.63
2023-03-26T11:33:14.233Z,98823.19
2023-03-26T11:36:45.291Z,98816.66
2023-03-26T11:40:15.689Z,98824.72
2023-03-26T11:43:38.330Z,98820.97
2023-03-26T11:47:05.864Z,98817.28
2023-03-26T11:50:32.706Z,98816.06
2023-03-26T11:53:57.889Z,98808.53
2023-03-26T11:57:23.981Z,98820.38
2023-03-26T12:00:46.329Z,98824.50
2023-03-26T12:04:13.571Z,98811.91
2023-03-26T12:07:37.441Z,98825.22
2023-03-26T12:11:07.267Z,98826.22
2023-03-26T12:14:32.082Z,98781.13
2023-03-26T12:17:56.587Z,98814.06
2023-03-26T12:21:20.916Z,98826.34
2023-03-26T12:24:44.111Z,98826.75
2023-03-26T12:28:18.974Z,98811.75
2023-03-26T12:31:52.412Z,98793.31
2023-03-26T12:35:19.750Z,98813.63
2023-03-26T12:38:42.617Z,98811.66
2023-03-26T12:44:43.007Z,98812.50
2023-03-26T12:46:44.246Z,98803.88
2023-03-26T12:49:37.899Z,98792.50
2023-03-26T12:53:16.081Z,98803.97
2023-03-26T12:56:44.760Z,98804.09
2023-03-26T13:00:28.944Z,98803.25
2023-03-26T13:04:09.848Z,98803.56
2023-03-26T13:07:48.895Z,98794.91
2023-03-26T13:11:17.911Z,98795.19
2023-03-26T13:14:56.934Z,98802.31
2023-03-26T13:18:28.757Z,98802.94
2023-03-26T13:22:05.824Z,98809.47
2023-03-26T13:25:36.677Z,98802.19
2023-03-26T13:29:07.364Z,98792.16
2023-03-26T13:32:44.278Z,98803.97
2023-03-26T13:36:22.515Z,98783.81
2023-03-26T13:40:00.922Z,98791.63
2023-03-26T13:43:42.840Z,98798.13
2023-03-26T13:47:10.804Z,98788.41
2023-03-26T13:50:38.951Z,98801.28
2023-03-26T13:54:07.325Z,98785.31
2023-03-26T13:57:35.060Z,98802.41
2023-03-26T14:01:07.734Z,98795.84
2023-03-26T14:04:32.740Z,98795.59
2023-03-26T14:08:01.748Z,98792.78
2023-03-26T14:11:34.825Z,98774.94
2023-03-26T14:15:04.116Z,98788.63
2023-03-26T14:18:36.052Z,98773.28
2023-03-26T14:22:13.303Z,98788.22
2023-03-26T14:25:49.390Z,98766.84
2023-03-26T14:29:33.110Z,98751.31
2023-03-26T14:33:07.489Z,98786.75
2023-03-26T14:36:49.943Z,98745.78
2023-03-26T14:40:41.809Z,98786.13
2023-03-26T14:44:48.684Z,98776.41
2023-03-26T14:48:34.250Z,98774.56
2023-03-26T14:52:02.919Z,98773.75
2023-03-26T15:00:20.281Z,98770.81
2023-03-26T15:04:19.440Z,98776.25
2023-03-26T15:08:42.040Z,98767.19
2023-03-26T15:12:13.523Z,98765.91
2023-03-26T15:15:59.228Z,98763.84
2023-03-26T15:20:19.863Z,98763.41
2023-03-26T15:24:11.233Z,98771.00
2023-03-26T15:27:54.107Z,98768.69
2023-03-26T15:31:58.890Z,98771.19
2023-03-26T15:35:45.765Z,98760.56
2023-03-26T15:39:59.420Z,98766.16
2023-03-26T15:43:24.459Z,98765.09
2023-03-26T15:46:59.169Z,98773.66
2023-03-26T15:50:33.319Z,98771.88
2023-03-26T15:53:59.219Z,98764.47
2023-03-26T15:57:30.704Z,98779.88
2023-03-26T16:01:04.964Z,98779.09
2023-03-26T16:04:41.522Z,98774.28
2023-03-26T16:08:22.471Z,98771.56
2023-03-26T16:11:53.682Z,98766.41
2023-03-26T16:15:28.025Z,98771.59
2023-03-26T16:18:56.603Z,98774.47
2023-03-26T16:22:55.054Z,98775.81
2023-03-26T16:26:21.457Z,98784.06
2023-03-26T16:30:15.955Z,98783.56
2023-03-26T16:33:39.382Z,98783.94
2023-03-26T16:37:09.023Z,98774.09
2023-03-26T16:40:36.700Z,98783.63
2023-03-26T16:44:13.908Z,98767.97
2023-03-26T16:47:44.155Z,98775.56
2023-03-26T16:51:15.067Z,98788.94
2023-03-26T16:54:53.814Z,98786.44
2023-03-26T16:58:29.167Z,98773.09
2023-03-26T17:02:00.768Z,98784.31
2023-03-26T17:05:34.420Z,98792.22
2023-03-26T17:09:04.465Z,98787.28
2023-03-26T17:12:37.852Z,98780.50
2023-03-26T17:16:07.445Z,98767.94
2023-03-26T17:19:36.848Z,98785.63
2023-03-26T17:23:10.715Z,98769.91
2023-03-26T17:26:44.385Z,98783.19
2023-03-26T17:30:35.461Z,98780.84
2023-03-26T17:34:46.961Z,98785.16
2023-03-26T17:38:49.855Z,98774.59
2023-03-26T17:42:20.500Z,98795.00
2023-03-26T17:46:03.411Z,98789.00
2023-03-26T17:49:31.299Z,98792.53
2023-03-26T17:52:58.295Z,98789.00
2023-03-26T17:56:29.019Z,98790.75
2023-03-26T17:59:54.570Z,98791.59
2023-03-26T18:03:21.905Z,98787.41
2023-03-26T18:07:09.051Z,98750.41
2023-03-26T18:10:44.302Z,98795.00
2023-03-26T18:14:28.980Z,98791.69
2023-03-26T18:17:51.730Z,98787.50
2023-03-26T18:21:23.024Z,98798.56
2023-03-26T18:24:47.708Z,98790.00
2023-03-26T18:28:15.556Z,98787.59
2023-03-26T18:31:42.961Z,98790.09
2023-03-26T18:35:19.054Z,98779.97
2023-03-26T18:38:43.044Z,98778.13
2023-03-26T18:42:05.955Z,98773.06
2023-03-26T18:45:30.992Z,98772.28
2023-03-26T18:48:55.344Z,98779.34
2023-03-26T18:52:19.735Z,98771.66
2023-03-26T18:55:44.948Z,98734.22
2023-03-26T18:59:08.763Z,98755.28
2023-03-26T19:02:31.210Z,98772.09
2023-03-26T19:05:54.703Z,98768.91
2023-03-26T19:09:30.889Z,98767.25
2023-03-26T19:13:00.113Z,98765.59
2023-03-26T19:16:28.339Z,98764.75
2023-03-26T19:19:51.462Z,98760.47
2023-03-26T19:23:37.783Z,98763.91
2023-03-26T19:27:00.027Z,98761.31
2023-03-26T19:30:30.629Z,98756.97
2023-03-26T19:33:58.044Z,98755.28
2023-03-26T19:37:23.042Z,98759.75
2023-03-26T19:40:45.060Z,98759.00
2023-03-26T19:44:21.726Z,98758.16
2023-03-26T19:47:50.482Z,98751.28
2023-03-26T19:51:21.144Z,98728.56
2023-03-26T19:54:59.384Z,98742.00
2023-03-26T19:58:22.711Z,98747.38
2023-03-26T20:01:44.585Z,98735.41
2023-03-26T20:05:16.702Z,98714.53
2023-03-26T20:08:41.710Z,98739.88
2023-03-26T20:12:03.642Z,98734.13
2023-03-26T20:15:28.396Z,98729.09
2023-03-26T20:18:51.475Z,98709.25
2023-03-26T20:22:16.944Z,98727.69
2023-03-26T20:25:49.290Z,98726.09
2023-03-26T20:29:11.832Z,98710.13
2023-03-26T20:32:34.454Z,98693.19
2023-03-26T20:35:58.831Z,98713.41
2023-03-26T20:39:22.847Z,98719.50
2023-03-26T20:42:46.293Z,98719.63
2023-03-26T20:46:11.019Z,98715.34
2023-03-26T20:49:33.038Z,98690.38
2023-03-26T20:52:59.913Z,98676.44
2023-03-26T20:56:23.873Z,98706.34
2023-03-26T20:59:46.312Z,98718.38
2023-03-26T21:03:08.697Z,98688.13
2023-03-26T21:06:30.421Z,98693.22
2023-03-26T21:13:38.027Z,98712.44
2023-03-26T21:17:00.697Z,98708.19
2023-03-26T21:20:23.968Z,98710.03
2023-03-26T21:23:59.535Z,98702.53
2023-03-26T21:27:55.643Z,98590.03
2023-03-26T21:31:21.221Z,98678.13
2023-03-26T21:34:55.694Z,98709.94
2023-03-26T21:38:22.424Z,98711.88
2023-03-26T21:42:04.693Z,98652.31
2023-03-26T21:45:28.810Z,98710.03
2023-03-26T21:49:06.734Z,98714.47
2023-03-26T21:52:30.297Z,98711.13
2023-03-26T21:56:01.992Z,98702.53
2023-03-26T21:59:58.719Z,98675.22
2023-03-26T22:03:26.558Z,98679.94
2023-03-26T22:06:56.847Z,98674.75
2023-03-26T22:10:19.591Z,98688.97
2023-03-26T22:13:44.278Z,98681.47
2023-03-26T22:17:06.584Z,98696.41
2023-03-26T22:20:28.796Z,98698.16
2023-03-26T22:24:18.499Z,98692.03
2023-03-26T22:27:43.870Z,98690.28
2023-03-26T22:31:08.856Z,98691.13
2023-03-26T22:34:31.885Z,98683.34
2023-03-26T22:38:00.370Z,98673.41
2023-03-26T22:41:24.772Z,98674.88
2023-03-26T22:44:46.997Z,98681.84
2023-03-26T22:48:08.911Z,98676.59
2023-03-26T22:51:31.310Z,98679.91
2023-03-26T22:54:53.239Z,98676.41
2023-03-26T22:58:17.005Z,98667.09
2023-03-26T23:01:39.386Z,98671.41
2023-03-26T23:05:01.445Z,98663.88
2023-03-26T23:08:23.647Z,98668.41
2023-03-26T23:11:45.574Z,98664.22
2023-03-26T23:15:10.803Z,98644.28
2023-03-26T23:18:33.345Z,98659.38
2023-03-26T23:21:55.676Z,98655.97
2023-03-26T23:25:17.986Z,98661.03
2023-03-26T23:28:41.124Z,98640.16
2023-03-26T23:32:04.447Z,98621.81
2023-03-26T23:35:48.216Z,98634.44
2023-03-26T23:39:11.074Z,98647.34
2023-03-26T23:42:34.612Z,98645.75
2023-03-26T23:45:59.668Z,98650.13
2023-03-26T23:49:22.693Z,98651.78
2023-03-26T23:52:46.185Z,98656.22
2023-03-26T23:56:13.373Z,98652.06
2023-03-26T23:59:37.081Z,98651.38
